Time;durP1;ratioP1;P1;durP2;ratioP2;P2;SDS_P1;SDS_P2;PMS_P1;PMS_P2;Temp;Humidity;BMP_temperature;BMP_pressure;BME280_temperature;BME280_humidity;BME280_pressure;Samples;Min_cycle;Max_cycle;Signal;HPM_P1;HPM_P2
2021/11/20 00:01:08;;;;;;;30.33;17.65;;;7.90;99.90;;;6.86;100.00;98915.94;5055006;28;20041;-70
2021/11/20 00:03:44;;;;;;;30.05;19.13;;;8.00;99.90;;;6.71;100.00;98911.72;5040712;28;20076;-70
2021/11/20 00:06:18;;;;;;;27.42;17.95;;;7.90;99.90;;;6.76;100.00;98912.56;5047104;28;20140;-70
2021/11/20 00:08:46;;;;;;;26.65;17.08;;;7.90;99.90;;;6.75;100.00;98913.44;5043750;28;20527;-72
2021/11/20 00:11:17;;;;;;;29.55;18.70;;;7.90;99.90;;;6.71;100.00;98909.16;5048310;28;20048;-70
2021/11/20 00:13:48;;;;;;;25.58;17.40;;;7.90;99.90;;;6.79;100.00;98906.50;5053722;28;20080;-70
2021/11/20 00:16:19;;;;;;;26.80;16.48;;;7.90;99.90;;;6.94;100.00;98897.81;5059872;28;20129;-70
2021/11/20 00:18:47;;;;;;;20.70;14.02;;;7.90;99.90;;;7.02;100.00;98894.31;5044537;28;20049;-70
2021/11/20 00:21:24;;;;;;;29.98;17.55;;;7.90;99.90;;;6.84;100.00;98894.44;5047620;28;20073;-70
2021/11/20 00:23:57;;;;;;;25.63;16.83;;;7.90;99.90;;;6.78;100.00;98897.91;5056050;28;21370;-70
2021/11/20 00:26:30;;;;;;;28.33;17.65;;;7.90;99.90;;;6.76;100.00;98891.91;5042968;28;20074;-69
2021/11/20 00:31:33;;;;;;;21.50;14.93;;;7.80;99.90;;;6.80;100.00;98878.13;5043036;28;20081;-70
2021/11/20 00:34:01;;;;;;;29.02;17.83;;;7.80;99.90;;;6.63;100.00;98879.94;5058452;28;20082;-70
2021/11/20 00:36:29;;;;;;;34.22;19.42;;;7.80;99.90;;;6.61;100.00;98877.34;5036208;28;20077;-69
2021/11/20 00:38:57;;;;;;;36.13;19.95;;;7.70;99.90;;;6.47;100.00;98879.16;5042388;28;20048;-70
2021/11/20 00:41:28;;;;;;;27.33;17.75;;;7.70;99.90;;;6.74;100.00;98873.00;5039623;28;20049;-70
2021/11/20 00:43:56;;;;;;;31.40;18.58;;;7.70;99.90;;;6.51;100.00;98875.72;5044832;28;20052;-69
2021/11/20 00:46:29;;;;;;;30.88;19.50;;;7.70;99.90;;;6.58;100.00;98873.97;5047043;28;20049;-70
2021/11/20 00:48:57;;;;;;;33.60;20.35;;;7.70;99.90;;;6.48;100.00;98876.59;5048269;28;20052;-70
2021/11/20 00:51:28;;;;;;;26.65;17.02;;;7.70;99.90;;;6.66;100.00;98879.91;5049615;28;20053;-71
2021/11/20 00:53:55;;;;;;;26.05;17.33;;;7.70;99.90;;;6.68;100.00;98876.47;5038359;28;20461;-70
2021/11/20 00:56:26;;;;;;;26.83;16.95;;;7.80;99.90;;;6.72;100.00;98874.72;5050507;28;20080;-70
2021/11/20 00:58:53;;;;;;;32.15;19.63;;;7.80;99.90;;;6.55;100.00;98868.81;5047377;28;20085;-70
2021/11/20 01:01:33;;;;;;;39.15;23.52;;;7.70;99.90;;;6.40;100.00;98867.19;5052701;28;20493;-70
2021/11/20 01:04:01;;;;;;;30.08;19.38;;;7.80;99.90;;;6.60;100.00;98869.66;5043777;28;20128;-70
2021/11/20 01:06:29;;;;;;;39.03;22.67;;;7.80;99.90;;;6.55;100.00;98869.69;5034081;28;20547;-70
2021/11/20 01:08:56;;;;;;;38.63;21.42;;;7.80;99.90;;;6.60;100.00;98864.50;5050177;28;20146;-70
2021/11/20 01:11:31;;;;;;;25.88;17.25;;;7.80;99.90;;;6.83;100.00;98870.34;5052349;28;20079;-70
2021/11/20 01:14:03;;;;;;;35.50;20.10;;;7.80;99.90;;;6.68;100.00;98866.16;5056342;28;20088;-70
2021/11/20 01:16:31;;;;;;;29.63;18.20;;;7.80;99.90;;;6.63;100.00;98865.31;5051249;28;20037;-70
2021/11/20 01:19:01;;;;;;;28.60;17.33;;;7.80;99.90;;;6.63;100.00;98856.72;5052450;28;20091;-71
2021/11/20 01:21:30;;;;;;;36.47;21.45;;;7.80;99.90;;;6.67;100.00;98858.41;5047914;28;20477;-70
2021/11/20 01:23:57;;;;;;;35.40;20.42;;;7.80;99.90;;;6.67;100.00;98867.00;5053957;28;20478;-70
2021/11/20 01:26:25;;;;;;;37.10;22.58;;;7.80;99.90;;;6.45;100.00;98868.88;5050139;28;20408;-70
2021/11/20 01:28:56;;;;;;;31.02;18.92;;;7.80;99.90;;;6.48;100.00;98861.13;5047148;28;20128;-70
2021/11/20 01:31:26;;;;;;;37.30;21.00;;;7.80;99.90;;;6.53;100.00;98866.25;5052778;28;20045;-70
2021/11/20 01:33:54;;;;;;;38.45;22.23;;;7.80;99.90;;;6.53;100.00;98868.81;5051093;28;20072;-70
2021/11/20 01:36:26;;;;;;;34.47;20.50;;;7.80;99.90;;;6.55;100.00;98861.94;5051185;28;20133;-70
2021/11/20 01:38:57;;;;;;;46.75;23.98;;;7.80;99.90;;;6.43;100.00;98856.84;5052819;28;20156;-70
2021/11/20 01:41:29;;;;;;;45.03;24.73;;;7.80;99.90;;;6.36;100.00;98863.75;5054494;28;20120;-70
2021/11/20 01:44:07;;;;;;;29.35;18.35;;;7.70;99.90;;;6.57;100.00;98855.06;5053233;28;20118;-70
2021/11/20 01:46:34;;;;;;;42.42;23.25;;;7.70;99.90;;;6.35;100.00;98845.72;5054956;28;20084;-70
2021/11/20 01:49:18;;;;;;;38.13;22.52;;;7.70;99.90;;;6.31;100.00;98842.28;5050044;28;20124;-70
2021/11/20 01:52:31;;;;;;;31.67;19.27;;;7.70;99.90;;;6.42;100.00;98840.50;5053427;28;20041;-70
2021/11/20 01:55:08;;;;;;;30.60;18.65;;;7.60;99.90;;;6.54;100.00;98839.56;5037760;28;20129;-70
2021/11/20 01:57:53;;;;;;;45.35;23.27;;;7.60;99.90;;;6.41;100.00;98837.94;5052035;28;20057;-72
2021/11/20 02:00:32;;;;;;;38.30;22.70;;;7.60;99.90;;;6.32;100.00;98840.56;5053410;28;20115;-70
2021/11/20 02:03:17;;;;;;;35.92;21.33;;;7.60;99.90;;;6.28;100.00;98834.56;5058978;28;20077;-70
2021/11/20 02:06:14;;;;;;;39.22;21.30;;;7.60;99.90;;;6.29;100.00;98833.69;5057093;28;20439;-70
2021/11/20 02:09:02;;;;;;;46.42;24.60;;;7.50;99.90;;;6.27;100.00;98835.41;5046430;28;20076;-70
2021/11/20 02:11:47;;;;;;;37.75;21.08;;;7.50;99.90;;;6.35;100.00;98835.41;5047671;28;20068;-70
2021/11/20 02:14:18;;;;;;;39.13;21.27;;;7.50;99.90;;;6.25;100.00;98832.88;5055718;28;20455;-70
2021/11/20 02:16:49;;;;;;;35.78;21.92;;;7.40;99.90;;;6.47;100.00;98833.59;5061033;28;20120;-72
2021/11/20 02:19:24;;;;;;;42.33;23.00;;;7.50;99.90;;;6.35;100.00;98822.50;5050154;28;20048;-70
2021/11/20 02:22:38;;;;;;;38.80;20.90;;;7.40;99.90;;;6.42;100.00;98827.59;5048682;28;20137;-70
2021/11/20 02:25:05;;;;;;;35.35;20.88;;;7.50;99.90;;;6.33;100.00;98817.34;5041874;28;20057;-70
2021/11/20 02:27:44;;;;;;;45.38;24.60;;;7.50;99.90;;;6.19;100.00;98817.44;5045315;28;20128;-70
2021/11/20 02:30:22;;;;;;;40.15;22.58;;;7.50;99.90;;;6.29;100.00;98815.66;5049596;28;20622;-70
2021/11/20 02:33:13;;;;;;;29.63;20.50;;;7.50;99.90;;;6.47;100.00;98810.38;5055627;28;20083;-70
2021/11/20 02:35:44;;;;;;;40.25;22.30;;;7.50;99.90;;;6.45;100.00;98808.69;5057663;28;20076;-70
2021/11/20 02:38:17;;;;;;;35.92;21.48;;;7.50;99.90;;;6.41;100.00;98805.28;5067408;28;20057;-70
2021/11/20 02:40:45;;;;;;;32.60;19.65;;;7.60;99.90;;;6.56;100.00;98799.16;5041189;28;20081;-70
2021/11/20 02:43:14;;;;;;;41.85;23.45;;;7.50;99.90;;;6.57;100.00;98798.31;5071525;28;20044;-70
2021/11/20 02:45:49;;;;;;;47.17;24.35;;;7.50;99.90;;;6.35;100.00;98800.16;5048816;28;20076;-70
2021/11/20 02:48:18;;;;;;;42.50;22.63;;;7.60;99.90;;;6.43;100.00;98800.97;5048595;28;20063;-70
2021/11/20 02:50:57;;;;;;;37.05;21.38;;;7.50;99.90;;;6.54;100.00;98784.56;5067237;28;20120;-70
2021/11/20 02:53:45;;;;;;;38.15;20.35;;;7.50;99.90;;;6.67;100.00;98793.91;5065760;28;20147;-70
2021/11/20 02:56:22;;;;;;;45.95;23.55;;;7.50;99.90;;;6.51;100.00;98788.00;5050044;28;20080;-70
2021/11/20 02:58:50;;;;;;;37.97;22.52;;;7.60;99.90;;;6.39;100.00;98781.22;5047613;28;20076;-70
2021/11/20 03:01:33;;;;;;;49.47;24.38;;;7.60;99.90;;;6.30;100.00;98778.69;5057881;28;20119;-70
2021/11/20 03:04:00;;;;;;;36.92;22.40;;;7.50;99.90;;;6.31;100.00;98777.81;5050072;28;20110;-70
2021/11/20 03:06:28;;;;;;;45.55;24.95;;;7.50;99.90;;;6.33;100.00;98770.09;5038684;28;20049;-70
2021/11/20 03:08:55;;;;;;;54.25;27.73;;;7.50;99.90;;;6.23;100.00;98767.56;5048034;28;20500;-70
2021/11/20 03:11:23;;;;;;;43.50;25.40;;;7.50;99.90;;;6.33;100.00;98770.09;5052380;28;20128;-70
2021/11/20 03:13:55;;;;;;;49.05;26.25;;;7.50;99.90;;;6.36;100.00;98772.63;5050864;28;20146;-70
2021/11/20 03:16:23;;;;;;;58.38;27.77;;;7.60;99.90;;;6.23;100.00;98766.72;5063402;28;20059;-70
2021/11/20 03:18:50;;;;;;;56.88;27.95;;;7.60;99.90;;;6.32;100.00;98770.94;5065107;28;20492;-70
2021/11/20 03:21:19;;;;;;;40.88;22.98;;;7.60;99.90;;;6.44;100.00;98760.56;5039104;28;20072;-70
2021/11/20 03:23:51;;;;;;;54.15;28.30;;;7.60;99.90;;;6.29;100.00;98761.50;5058612;28;20106;-70
2021/11/20 03:26:18;;;;;;;40.40;23.13;;;7.60;99.90;;;6.34;100.00;98758.88;5049444;28;20399;-70
2021/11/20 03:28:45;;;;;;;39.35;22.83;;;7.60;99.90;;;6.30;100.00;98760.66;5070732;28;20123;-70
2021/11/20 03:31:12;;;;;;;38.15;21.00;;;7.60;99.90;;;6.47;100.00;98753.63;5051499;28;20144;-70
2021/11/20 03:33:40;;;;;;;52.00;25.25;;;7.60;99.90;;;6.16;100.00;98750.44;5054715;28;20068;-70
2021/11/20 03:36:07;;;;;;;38.10;20.40;;;7.60;99.90;;;6.40;100.00;98751.97;5060488;28;20095;-70
2021/11/20 03:38:35;;;;;;;30.83;19.50;;;7.50;99.90;;;6.56;100.00;98739.81;5054832;28;20052;-70
2021/11/20 03:41:03;;;;;;;29.25;16.85;;;7.50;99.90;;;6.64;100.00;98732.88;5052752;28;20131;-70
2021/11/20 03:43:31;;;;;;;29.35;18.35;;;7.50;99.90;;;6.60;100.00;98736.34;5056962;28;20472;-70
2021/11/20 03:45:58;;;;;;;42.28;22.42;;;7.60;99.90;;;6.72;100.00;98735.38;5052304;28;20056;-70
2021/11/20 03:48:25;;;;;;;29.65;16.70;;;7.60;99.90;;;6.88;100.00;98723.19;5053970;28;20124;-70
2021/11/20 03:50:52;;;;;;;28.58;17.42;;;7.70;99.90;;;6.82;100.00;98720.66;5058352;28;20128;-70
2021/11/20 03:53:21;;;;;;;31.90;19.52;;;7.70;99.90;;;6.67;100.00;98729.41;5054400;28;20066;-70
2021/11/20 03:55:49;;;;;;;54.42;25.55;;;7.70;99.90;;;6.37;100.00;98730.53;5044719;28;20507;-70
2021/11/20 03:58:19;;;;;;;33.05;20.13;;;7.70;99.90;;;6.32;100.00;98727.09;5045504;28;20076;-70
2021/11/20 04:01:01;;;;;;;30.08;18.42;;;7.60;99.90;;;6.55;100.00;98717.47;5048826;28;20068;-70
2021/11/20 04:03:28;;;;;;;35.83;19.15;;;7.50;99.90;;;6.46;100.00;98708.09;5061382;28;20516;-70
2021/11/20 04:05:57;;;;;;;35.20;19.45;;;7.50;99.90;;;6.29;100.00;98712.50;5045522;28;20128;-70
2021/11/20 04:08:26;;;;;;;45.70;22.23;;;7.50;99.90;;;6.09;100.00;98720.41;5052298;28;20145;-70
2021/11/20 04:10:57;;;;;;;40.38;20.25;;;7.50;99.90;;;6.12;100.00;98722.94;5047184;28;20049;-72
2021/11/20 04:13:24;;;;;;;49.58;22.88;;;7.30;99.90;;;5.91;100.00;98712.72;5048990;28;20087;-70
2021/11/20 04:15:51;;;;;;;35.28;19.88;;;7.30;99.90;;;6.12;100.00;98719.53;5045953;28;20080;-70
2021/11/20 04:18:19;;;;;;;39.33;21.65;;;7.30;99.90;;;6.33;100.00;98715.94;5051418;28;20113;-70
2021/11/20 04:20:46;;;;;;;38.78;19.75;;;7.30;99.90;;;6.09;100.00;98715.25;5069987;28;20410;-70
2021/11/20 04:23:14;;;;;;;46.20;22.40;;;7.30;99.90;;;5.87;100.00;98711.91;5059228;28;20068;-70
2021/11/20 04:25:42;;;;;;;53.85;25.00;;;7.30;99.90;;;5.98;100.00;98711.88;5060548;28;20465;-70
2021/11/20 04:28:09;;;;;;;32.13;16.45;;;7.20;99.90;;;6.22;100.00;98698.81;5046422;28;20532;-70
2021/11/20 04:30:39;;;;;;;47.38;22.27;;;7.10;99.90;;;6.01;100.00;98704.97;5055122;28;20041;-70
2021/11/20 04:33:06;;;;;;;42.60;22.05;;;7.10;99.90;;;6.10;100.00;98690.31;5040975;28;20050;-71
2021/11/20 04:35:34;;;;;;;35.58;18.40;;;7.10;99.90;;;6.07;100.00;98688.63;5050682;28;20077;-69
2021/11/20 04:38:01;;;;;;;40.83;20.73;;;7.00;99.90;;;6.04;100.00;98681.75;5049653;28;20132;-72
2021/11/20 04:40:28;;;;;;;38.75;20.45;;;7.00;99.90;;;6.12;100.00;98681.69;5066528;28;20131;-72
2021/11/20 04:42:55;;;;;;;33.92;18.95;;;6.90;99.90;;;6.09;100.00;98681.72;5061349;28;20135;-70
2021/11/20 04:45:26;;;;;;;39.00;21.60;;;6.90;99.90;;;5.78;100.00;98671.56;5070008;28;20112;-72
2021/11/20 04:47:54;;;;;;;53.28;25.45;;;6.80;99.90;;;5.63;100.00;98679.38;5071652;28;20055;-72
2021/11/20 04:50:26;;;;;;;44.60;22.85;;;6.70;99.90;;;5.59;100.00;98677.72;5030747;28;20045;-72
2021/11/20 04:52:54;;;;;;;77.00;26.85;;;6.60;99.90;;;5.51;100.00;98676.88;5054931;28;20049;-72
2021/11/20 04:55:21;;;;;;;37.78;21.33;;;6.50;99.90;;;5.52;100.00;98671.72;5054109;28;20087;-72
2021/11/20 04:57:48;;;;;;;58.15;23.52;;;6.50;99.90;;;5.48;100.00;98676.91;5070589;28;20049;-72
2021/11/20 05:00:25;;;;;;;33.72;18.23;;;6.50;99.90;;;5.56;100.00;98672.53;5051597;28;20076;-72
2021/11/20 05:02:54;;;;;;;38.17;19.45;;;6.50;99.90;;;5.61;100.00;98678.53;5061812;28;20080;-73
2021/11/20 05:05:23;;;;;;;279.63;37.28;;;6.50;99.90;;;5.34;100.00;98676.97;5045613;28;20571;-72
2021/11/20 05:07:50;;;;;;;379.60;45.95;;;6.50;99.90;;;5.11;100.00;98679.59;5061966;28;20076;-72
2021/11/20 05:10:17;;;;;;;72.35;23.83;;;6.40;99.90;;;5.18;100.00;98677.00;5061951;28;20049;-72
2021/11/20 05:12:45;;;;;;;374.65;38.35;;;6.40;99.90;;;5.12;100.00;98671.88;5061085;28;20432;-72
2021/11/20 05:15:16;;;;;;;346.10;40.28;;;6.30;99.90;;;5.16;100.00;98678.72;5065985;28;20095;-72
2021/11/20 05:17:44;;;;;;;145.88;26.42;;;6.30;99.90;;;5.34;100.00;98671.81;5052226;28;20112;-72
2021/11/20 05:20:13;;;;;;;86.78;22.67;;;6.30;99.90;;;5.22;100.00;98671.00;5061205;28;20095;-72
2021/11/20 05:22:42;;;;;;;178.10;27.98;;;6.30;99.90;;;5.31;100.00;98666.66;5062538;28;20072;-72
2021/11/20 05:25:12;;;;;;;204.85;31.88;;;6.30;99.90;;;5.17;100.00;98666.72;5053869;28;20095;-72
2021/11/20 05:27:42;;;;;;;647.05;57.67;;;6.30;99.90;;;5.02;100.00;98655.59;5066790;28;20049;-72
2021/11/20 05:30:16;;;;;;;217.73;28.98;;;6.20;99.90;;;4.89;100.00;98659.06;5053950;28;20045;-72
2021/11/20 05:32:46;;;;;;;313.17;29.17;;;6.20;99.90;;;4.93;100.00;98653.06;5048488;28;20073;-72
2021/11/20 05:35:17;;;;;;;118.53;21.70;;;6.20;99.90;;;5.08;100.00;98659.00;5061475;28;20070;-72
2021/11/20 05:37:45;;;;;;;108.95;23.40;;;6.20;99.90;;;5.09;100.00;98645.31;5063961;28;20052;-72
2021/11/20 05:40:15;;;;;;;102.75;23.05;;;6.20;99.90;;;5.01;100.00;98650.47;5062893;28;20083;-72
2021/11/20 05:42:53;;;;;;;119.07;21.63;;;6.10;99.90;;;4.98;100.00;98643.59;5044006;28;20501;-72
2021/11/20 05:45:28;;;;;;;620.47;46.50;;;6.10;99.90;;;4.69;100.00;98646.25;5050666;28;20057;-72
2021/11/20 05:47:55;;;;;;;219.20;23.77;;;6.10;99.90;;;4.92;100.00;98641.03;5060200;28;20082;-72
2021/11/20 05:50:25;;;;;;;68.57;16.67;;;6.10;99.90;;;5.21;100.00;98635.81;5065451;28;20128;-69
2021/11/20 05:52:54;;;;;;;61.33;15.75;;;6.20;99.90;;;5.16;100.00;98641.84;5051314;28;20072;-71
2021/11/20 05:55:27;;;;;;;189.65;23.30;;;6.20;99.90;;;5.02;100.00;98637.59;5055782;28;20072;-72
2021/11/20 05:57:54;;;;;;;80.32;20.63;;;6.10;99.90;;;5.06;100.00;98640.16;5057641;28;20085;-72
2021/11/20 06:00:28;;;;;;;195.15;23.77;;;6.10;99.90;;;5.09;100.00;98632.44;5057162;28;20126;-72
2021/11/20 06:02:59;;;;;;;51.47;16.58;;;6.10;99.90;;;5.15;100.00;98635.81;5053649;28;20048;-72
2021/11/20 06:05:28;;;;;;;46.63;16.75;;;6.10;99.90;;;5.18;100.00;98634.97;5061128;28;20561;-72
2021/11/20 06:07:55;;;;;;;189.82;25.77;;;6.10;99.90;;;5.09;100.00;98641.00;5048004;28;20081;-72
2021/11/20 06:10:22;;;;;;;77.30;20.00;;;6.10;99.90;;;5.11;100.00;98640.97;5058535;28;20072;-72
2021/11/20 06:12:49;;;;;;;303.80;35.13;;;6.10;99.90;;;5.00;100.00;98636.75;5066476;28;20076;-72
2021/11/20 06:15:17;;;;;;;45.58;20.65;;;6.00;99.90;;;4.98;100.00;98641.03;5036436;28;20440;-72
2021/11/20 06:17:44;;;;;;;111.65;29.45;;;6.00;99.90;;;4.80;100.00;98641.94;5044664;28;20507;-71
2021/11/20 06:20:12;;;;;;;43.20;20.60;;;5.90;99.90;;;4.97;100.00;98644.47;5055395;28;20712;-71
2021/11/20 06:22:40;;;;;;;94.43;25.20;;;6.00;99.90;;;4.87;100.00;98647.06;5057655;28;20544;-71
2021/11/20 06:25:10;;;;;;;43.60;18.90;;;5.90;99.90;;;5.09;100.00;98641.00;5040023;28;20525;-71
2021/11/20 06:27:37;;;;;;;37.42;18.02;;;6.00;99.90;;;5.07;100.00;98641.88;5036448;28;20061;-72
2021/11/20 06:30:10;;;;;;;35.78;18.85;;;6.00;99.90;;;5.04;100.00;98647.91;5058036;28;20045;-71
2021/11/20 06:32:38;;;;;;;67.40;23.30;;;6.00;99.90;;;5.02;100.00;98636.75;5058364;28;20100;-72
2021/11/20 06:35:10;;;;;;;30.15;18.27;;;6.00;99.90;;;5.03;100.00;98639.28;5064732;28;20127;-71
2021/11/20 06:37:40;;;;;;;32.85;17.88;;;6.00;99.90;;;5.04;100.00;98632.47;5047312;28;20426;-72
2021/11/20 06:40:15;;;;;;;29.25;16.23;;;6.00;99.90;;;5.10;100.00;98642.72;5053167;28;20124;-72
2021/11/20 06:42:43;;;;;;;88.57;26.25;;;6.00;99.90;;;4.87;100.00;98647.06;5058871;28;20044;-72
2021/11/20 06:45:15;;;;;;;219.32;36.63;;;6.00;99.90;;;4.67;100.00;98647.97;5051964;28;20554;-72
2021/11/20 06:47:42;;;;;;;63.15;22.38;;;6.00;99.90;;;4.94;100.00;98644.47;5057069;28;20053;-71
2021/11/20 06:50:09;;;;;;;381.70;46.67;;;6.00;99.90;;;4.63;100.00;98646.28;5069850;28;20079;-71
2021/11/20 06:52:37;;;;;;;44.38;21.27;;;6.00;99.90;;;4.86;100.00;98653.06;5040721;28;20065;-72
2021/11/20 06:55:07;;;;;;;32.10;19.15;;;5.90;99.90;;;5.01;100.00;98647.88;5058774;28;20072;-71
2021/11/20 07:00:27;;;;;;;217.50;31.95;;;6.00;99.90;;;5.10;100.00;98637.56;5061216;28;20112;-71
2021/11/20 07:03:11;;;;;;;39.15;19.83;;;6.10;99.90;;;5.07;100.00;98645.31;5055828;28;20071;-72
2021/11/20 07:05:45;;;;;;;39.20;19.80;;;6.10;99.90;;;5.24;100.00;98643.53;5053001;28;20099;-71
2021/11/20 07:08:13;;;;;;;36.80;17.10;;;6.10;99.90;;;5.28;100.00;98633.22;5064996;28;20148;-71
2021/11/20 07:10:42;;;;;;;98.80;25.17;;;6.20;99.90;;;5.17;100.00;98641.81;5054241;28;20072;-72
2021/11/20 07:13:12;;;;;;;38.35;19.52;;;6.20;99.90;;;5.30;100.00;98642.63;5058179;28;20048;-72
2021/11/20 07:15:40;;;;;;;216.88;40.30;;;6.20;99.90;;;5.05;100.00;98635.88;5054785;28;20473;-71
2021/11/20 07:18:08;;;;;;;53.00;24.67;;;6.20;99.90;;;5.21;100.00;98634.94;5054547;28;20084;-72
2021/11/20 07:20:37;;;;;;;56.63;27.88;;;6.10;99.90;;;5.19;100.00;98626.38;5049615;28;20080;-72
2021/11/20 07:23:04;;;;;;;56.03;26.30;;;6.10;99.90;;;5.35;100.00;98630.59;5054766;28;20067;-71
2021/11/20 07:25:32;;;;;;;59.85;27.42;;;6.10;99.90;;;5.08;100.00;98626.41;5055189;28;20045;-71
2021/11/20 07:28:00;;;;;;;56.45;25.65;;;6.10;99.90;;;5.09;100.00;98630.72;5051898;28;20132;-71
2021/11/20 07:30:31;;;;;;;57.83;26.30;;;6.20;99.90;;;4.94;100.00;98626.47;5049648;28;20481;-71
2021/11/20 07:33:00;;;;;;;39.17;22.40;;;6.20;99.90;;;4.96;100.00;98627.31;5057796;28;20079;-72
2021/11/20 07:35:43;;;;;;;47.90;26.48;;;6.20;99.90;;;4.82;100.00;98626.50;5051669;28;20045;-72
2021/11/20 07:38:14;;;;;;;37.13;22.48;;;6.10;99.90;;;5.00;100.00;98623.88;5034620;28;20545;-71
2021/11/20 07:40:42;;;;;;;78.72;30.88;;;6.10;99.90;;;4.64;100.00;98616.28;5058194;28;20036;-71
2021/11/20 07:43:11;;;;;;;72.13;30.90;;;6.10;99.90;;;4.62;100.00;98616.25;5056283;28;20067;-72
2021/11/20 07:45:39;;;;;;;71.05;27.88;;;6.10;99.90;;;4.57;100.00;98618.00;5055735;28;20072;-72
2021/11/20 07:48:12;;;;;;;76.25;28.35;;;6.10;99.90;;;4.55;100.00;98607.69;5061391;28;20110;-72
2021/11/20 07:50:41;;;;;;;59.30;22.63;;;6.10;99.90;;;4.77;100.00;98613.66;5054608;28;20072;-71
2021/11/20 07:53:08;;;;;;;28.33;18.05;;;6.10;99.90;;;4.97;100.00;98608.47;5032484;28;20813;-71
2021/11/20 07:55:35;;;;;;;27.42;15.95;;;6.10;99.90;;;5.19;100.00;98608.34;5041958;28;20569;-72
2021/11/20 07:58:03;;;;;;;29.90;16.40;;;6.20;99.90;;;5.26;100.00;98607.47;5056111;28;20135;-71
2021/11/20 08:00:33;;;;;;;37.00;20.27;;;6.30;99.90;;;5.47;100.00;98600.50;5047757;28;20047;-72
2021/11/20 08:03:00;;;;;;;33.85;17.88;;;6.40;99.90;;;5.62;100.00;98600.41;5042615;28;20117;-72
2021/11/20 08:05:28;;;;;;;38.92;20.55;;;6.50;99.90;;;5.66;100.00;98594.38;5036927;28;20103;-71
2021/11/20 08:07:56;;;;;;;25.80;16.23;;;6.60;99.90;;;5.82;100.00;98597.72;5036454;28;20473;-72
2021/11/20 08:10:27;;;;;;;34.08;17.27;;;6.70;99.90;;;6.02;100.00;98598.44;5038122;28;20570;-72
2021/11/20 08:12:55;;;;;;;29.13;18.38;;;6.80;99.90;;;6.06;100.00;98594.94;5056888;28;20112;-71
2021/11/20 08:15:25;;;;;;;34.65;21.65;;;6.90;99.90;;;6.22;100.00;98592.25;5026331;28;20057;-70
2021/11/20 08:17:53;;;;;;;25.02;15.75;;;7.00;99.90;;;6.22;100.00;98598.25;5045051;28;20136;-70
2021/11/20 08:20:24;;;;;;;26.58;16.17;;;7.10;99.90;;;5.99;100.00;98595.88;5045556;28;20453;-71
2021/11/20 08:22:52;;;;;;;34.72;19.65;;;7.10;99.90;;;5.85;100.00;98592.53;5044231;28;20467;-71
2021/11/20 08:25:23;;;;;;;24.98;15.65;;;7.10;99.90;;;6.17;100.00;98575.97;5045533;28;20556;-71
2021/11/20 08:27:52;;;;;;;25.00;16.13;;;7.20;99.90;;;6.11;100.00;98571.72;5036254;28;20140;-70
2021/11/20 08:30:23;;;;;;;29.45;17.52;;;7.30;99.90;;;6.22;100.00;98576.78;5044657;28;20339;-70
2021/11/20 08:32:51;;;;;;;43.83;24.70;;;7.30;99.90;;;6.22;100.00;98577.63;5053419;28;20048;-71
2021/11/20 08:35:19;;;;;;;47.95;28.15;;;7.40;99.90;;;6.16;100.00;98576.81;5044431;28;20044;-71
2021/11/20 08:37:46;;;;;;;40.67;25.88;;;7.50;99.90;;;6.60;100.00;98570.41;5056334;28;20577;-71
2021/11/20 08:40:20;;;;;;;45.38;26.95;;;7.50;99.90;;;6.69;100.00;98565.13;5048321;28;20091;-70
2021/11/20 08:42:49;;;;;;;40.88;25.23;;;7.70;99.90;;;6.97;100.00;98557.91;5054949;28;20136;-69
2021/11/20 08:45:22;;;;;;;36.22;24.23;;;7.80;99.90;;;6.71;100.00;98555.66;5034310;28;20076;-70
2021/11/20 08:47:53;;;;;;;37.17;25.05;;;7.90;99.90;;;6.99;100.00;98557.91;5045044;28;20076;-70
2021/11/20 08:50:26;;;;;;;34.80;22.83;;;8.00;99.90;;;7.06;100.00;98559.53;5055729;28;20796;-70
2021/11/20 08:52:54;;;;;;;40.20;26.70;;;8.00;99.90;;;7.00;100.00;98555.31;5059605;28;20129;-70
2021/11/20 08:55:23;;;;;;;37.15;23.98;;;8.00;99.90;;;7.11;100.00;98566.34;5047710;28;20053;-67
2021/11/20 08:57:50;;;;;;;55.58;32.70;;;8.10;99.90;;;7.00;100.00;98555.31;5044271;28;20044;-71
2021/11/20 09:00:34;;;;;;;52.53;30.00;;;8.10;99.90;;;7.24;100.00;98555.84;5049670;28;20461;-70
2021/11/20 09:03:17;;;;;;;41.58;25.48;;;8.10;99.90;;;7.20;100.00;98559.34;5038512;28;20135;-70
2021/11/20 09:06:03;;;;;;;36.65;22.50;;;8.20;99.90;;;6.97;100.00;98551.91;5044003;28;20057;-70
2021/11/20 09:08:38;;;;;;;33.47;20.70;;;8.40;99.90;;;7.03;100.00;98541.50;5050374;28;20144;-70
2021/11/20 09:11:27;;;;;;;32.20;20.30;;;8.50;99.90;;;7.69;100.00;98540.56;5065632;28;20084;-71
2021/11/20 09:14:02;;;;;;;25.25;16.08;;;8.70;99.90;;;7.82;100.00;98543.81;5030441;28;20130;-71
2021/11/20 09:16:30;;;;;;;22.55;16.98;;;8.80;99.90;;;7.78;100.00;98545.59;5029989;28;20054;-70
2021/11/20 09:18:58;;;;;;;27.38;16.40;;;8.90;99.90;;;7.53;100.00;98551.13;5044781;28;20120;-70
2021/11/20 09:21:26;;;;;;;24.55;14.70;;;9.00;99.90;;;7.56;100.00;98547.66;5048891;28;20131;-72
2021/11/20 09:23:53;;;;;;;24.05;14.65;;;9.00;99.90;;;7.72;100.00;98546.53;5047337;28;20049;-71
2021/11/20 09:26:21;;;;;;;19.15;11.27;;;9.10;99.90;;;7.88;100.00;98547.16;5037172;28;20615;-71
2021/11/20 09:28:55;;;;;;;14.95;9.32;;;9.20;99.90;;;8.24;100.00;98538.81;5063037;28;20044;-71
2021/11/20 09:31:23;;;;;;;19.08;11.52;;;9.30;99.90;;;8.54;100.00;98533.09;5057277;28;20081;-71
2021/11/20 09:33:50;;;;;;;10.13;7.20;;;9.50;99.90;;;8.48;100.00;98533.19;5049309;28;20480;-71
2021/11/20 09:36:20;;;;;;;7.20;5.50;;;9.60;99.90;;;8.45;100.00;98529.81;5046404;28;20072;-70
2021/11/20 09:38:49;;;;;;;11.38;7.05;;;9.70;99.90;;;8.35;100.00;98531.72;5035820;28;20057;-71
2021/11/20 09:41:53;;;;;;;11.50;6.97;;;9.80;99.90;;;8.81;100.00;98532.59;5035178;28;20589;-71
2021/11/20 09:44:21;;;;;;;11.98;6.22;;;9.70;99.90;;;8.82;100.00;98532.53;5055705;28;20057;-71
2021/11/20 09:46:53;;;;;;;7.82;5.15;;;9.80;99.90;;;8.59;100.00;98528.66;5047254;28;20155;-70
2021/11/20 09:49:33;;;;;;;10.40;5.40;;;9.70;99.90;;;8.35;100.00;98516.19;5046192;28;20041;-71
2021/11/20 09:52:01;;;;;;;7.68;5.68;;;9.40;99.90;;;8.40;100.00;98521.28;5042232;28;20052;-71
2021/11/20 09:54:36;;;;;;;7.38;4.45;;;9.50;99.90;;;8.67;100.00;98531.13;5048195;28;20045;-71
2021/11/20 09:57:31;;;;;;;10.07;6.85;;;9.60;99.90;;;8.64;100.00;98526.00;5034793;28;20091;-69
2021/11/20 10:00:42;;;;;;;10.93;5.30;;;9.70;99.90;;;8.87;100.00;98528.16;5028192;28;20053;-70
2021/11/20 10:03:44;;;;;;;9.18;5.95;;;9.90;99.90;;;9.07;100.00;98525.13;5037026;28;20057;-70
2021/11/20 10:06:20;;;;;;;7.53;3.70;;;9.90;99.90;;;9.20;100.00;98516.19;5042467;28;20123;-70
2021/11/20 10:08:49;;;;;;;7.53;4.75;;;10.20;99.90;;;9.46;100.00;98512.16;5039711;28;20080;-70
2021/11/20 10:12:00;;;;;;;10.75;5.20;;;10.40;99.90;;;9.61;100.00;98513.56;5046442;28;20045;-70
2021/11/20 10:14:41;;;;;;;6.63;4.85;;;10.50;99.90;;;9.21;100.00;98517.03;5028670;28;20067;-70
2021/11/20 10:17:27;;;;;;;8.40;4.22;;;10.50;99.90;;;9.42;100.00;98518.31;5044511;28;20049;-70
2021/11/20 10:20:18;;;;;;;7.78;4.10;;;10.60;99.90;;;9.74;100.00;98504.59;5048462;28;20087;-69
2021/11/20 10:23:02;;;;;;;6.60;4.45;;;10.70;99.90;;;9.76;100.00;98487.25;5044321;28;20083;-68
2021/11/20 10:25:53;;;;;;;8.73;4.95;;;10.90;99.90;;;9.59;100.00;98485.06;5045393;28;20213;-68
2021/11/20 10:28:41;;;;;;;8.48;5.40;;;10.80;99.90;;;9.47;100.00;98476.75;5044044;28;20071;-69
2021/11/20 10:31:21;;;;;;;8.30;5.72;;;10.80;99.90;;;9.45;100.00;98479.38;5042250;28;20135;-70
2021/11/20 10:34:48;;;;;;;7.90;4.53;;;10.80;99.90;;;9.50;100.00;98474.91;5049190;28;20060;-69
2021/11/20 10:37:37;;;;;;;6.53;3.75;;;10.80;99.90;;;9.38;100.00;98465.69;5039911;28;20059;-69
2021/11/20 10:40:59;;;;;;;6.85;4.30;;;10.70;99.90;;;9.20;100.00;98466.13;5038474;28;20155;-70